createdAt,value
2018-12-09T04:59:45.125Z,81.45
2018-12-09T05:02:30.874Z,81.46
2018-12-09T05:17:33.473Z,82.79
2018-12-09T05:57:10.160Z,81.95
2018-12-09T06:12:24.265Z,81.55
2018-12-09T06:24:18.055Z,82.16
2018-12-09T07:10:04.776Z,83.52
2018-12-09T07:25:13.154Z,83.83
2018-12-09T07:30:49.946Z,83.17
2018-12-09T07:33:19.685Z,82.94
2018-12-09T07:35:49.441Z,82.81
2018-12-09T07:38:18.822Z,81.24
2018-12-09T07:40:48.585Z,80.32
2018-12-09T07:43:18.369Z,79.94
2018-12-09T07:45:48.223Z,80.25
2018-12-09T07:48:17.768Z,80.63
2018-12-09T07:51:12.029Z,80.95
2018-12-09T07:53:51.119Z,81.44
2018-12-09T08:08:35.100Z,79.21
2018-12-09T08:17:16.025Z,78.12
2018-12-09T08:19:48.877Z,76.55
2018-12-09T08:22:33.473Z,77.00
2018-12-09T08:25:03.361Z,76.99
2018-12-09T08:27:33.454Z,74.45
2018-12-09T08:30:03.220Z,74.18
2018-12-09T08:32:32.888Z,74.42
2018-12-09T08:35:02.272Z,73.96
2018-12-09T08:37:32.429Z,75.24
2018-12-09T09:08:00.917Z,70.83
2018-12-09T09:23:07.250Z,70.06
2018-12-09T09:25:36.911Z,70.91
2018-12-09T09:28:06.636Z,70.06
2018-12-09T09:30:35.972Z,68.71
2018-12-09T09:33:05.500Z,68.94
2018-12-09T09:35:35.221Z,67.87
2018-12-09T09:38:05.106Z,68.38
2018-12-09T09:40:34.809Z,69.88
2018-12-09T09:43:04.195Z,69.20
2018-12-09T09:45:34.087Z,69.68
2018-12-09T09:48:12.131Z,69.12
2018-12-09T09:54:07.395Z,70.24
2018-12-09T09:58:15.230Z,70.98
2018-12-09T10:00:52.726Z,70.15
2018-12-09T10:03:28.515Z,70.04
2018-12-09T10:06:01.982Z,69.24
2018-12-09T10:08:39.087Z,70.07
2018-12-09T11:01:45.858Z,81.26
2018-12-09T11:04:21.188Z,80.87
2018-12-09T11:06:54.075Z,80.23
2018-12-09T11:12:28.885Z,79.76
2018-12-09T11:15:10.051Z,79.69
2018-12-09T11:17:51.771Z,79.63
2018-12-09T11:20:24.968Z,78.54
2018-12-09T11:25:51.709Z,78.90
2018-12-09T11:28:24.513Z,78.94
2018-12-09T11:30:57.043Z,78.67
2018-12-09T11:33:32.308Z,80.74
2018-12-09T11:36:10.013Z,79.89
2018-12-09T11:38:43.520Z,80.23
2018-12-09T11:41:16.836Z,80.89
2018-12-09T11:43:58.417Z,80.74
2018-12-09T11:46:27.870Z,82.11
2018-12-09T11:48:57.395Z,82.61
2018-12-09T11:51:30.831Z,83.97
2018-12-09T11:54:06.164Z,84.42
2018-12-09T11:56:41.324Z,85.94
2018-12-09T11:59:23.132Z,85.99
2018-12-09T12:05:09.683Z,85.92
2018-12-09T12:17:05.886Z,85.20
2018-12-09T14:50:19.201Z,92.13
2018-12-09T14:52:52.497Z,92.69
2018-12-09T15:01:33.118Z,93.57
2018-12-09T15:04:19.413Z,93.91
2018-12-09T15:06:52.425Z,93.50
2018-12-09T15:12:21.954Z,93.65
2018-12-09T15:15:04.509Z,93.03
2018-12-09T15:17:52.778Z,92.88
2018-12-09T15:20:38.043Z,93.68
2018-12-09T15:29:13.517Z,93.36
2018-12-09T15:38:02.860Z,92.70
2018-12-09T15:50:08.031Z,92.51
2018-12-09T15:55:38.193Z,91.30
2018-12-09T15:58:08.083Z,91.90
2018-12-09T16:00:41.779Z,92.00
2018-12-09T16:03:11.198Z,91.45
2018-12-09T16:05:41.606Z,91.43
2018-12-09T16:08:11.355Z,90.42
2018-12-09T16:10:40.767Z,90.34
2018-12-09T16:13:22.519Z,90.37
2018-12-09T16:28:05.703Z,90.52
2018-12-09T16:30:35.381Z,90.77
2018-12-09T16:42:36.204Z,90.68
2018-12-09T16:45:09.802Z,90.20
2018-12-09T16:50:47.665Z,90.84
2018-12-09T17:02:53.885Z,92.20
2018-12-09T17:05:24.162Z,92.73
2018-12-09T17:07:53.612Z,92.35
2018-12-09T17:10:23.144Z,92.90
2018-12-09T17:13:07.169Z,92.89
2018-12-09T17:15:36.553Z,91.93
2018-12-09T17:18:11.313Z,90.68
2018-12-09T17:20:41.303Z,89.69
2018-12-09T17:23:10.664Z,89.81
2018-12-09T17:25:40.449Z,90.45
2018-12-09T17:31:19.053Z,89.91
2018-12-09T17:33:48.450Z,90.21
2018-12-09T17:55:55.533Z,90.89
2018-12-09T17:58:45.014Z,92.00
2018-12-09T18:04:09.187Z,91.85
2018-12-09T18:07:00.095Z,91.14
2018-12-09T18:09:31.945Z,88.99
2018-12-09T18:38:33.946Z,90.24
2018-12-09T19:00:15.125Z,89.66
2018-12-09T19:05:56.733Z,90.70
2018-12-09T19:08:45.434Z,90.55
2018-12-09T19:14:45.705Z,90.34
2018-12-09T19:26:41.627Z,90.59
2018-12-09T19:32:12.649Z,90.21
2018-12-09T19:37:42.975Z,89.97
2018-12-09T19:40:13.927Z,88.83
2018-12-09T19:42:50.031Z,88.64
2018-12-09T19:45:20.241Z,88.15
2018-12-09T19:47:53.299Z,88.29
2018-12-09T19:50:34.689Z,87.49
2018-12-09T19:53:10.213Z,87.59
2018-12-09T19:55:39.657Z,87.29
2018-12-09T19:58:09.454Z,87.92
2018-12-09T20:07:00.679Z,86.71
2018-12-09T20:09:31.780Z,85.62
2018-12-09T20:12:06.937Z,86.15
2018-12-09T20:14:36.818Z,85.97
2018-12-09T20:17:06.256Z,83.91
2018-12-09T20:19:57.424Z,84.81
2018-12-09T20:22:27.308Z,83.61
2018-12-09T20:24:56.832Z,84.01
2018-12-09T20:27:27.957Z,83.10
2018-12-09T20:29:57.953Z,81.97
2018-12-09T20:32:35.051Z,83.22
2018-12-09T20:34:59.453Z,82.45
2018-12-09T20:37:29.297Z,82.52
2018-12-09T20:40:01.512Z,81.77
2018-12-09T20:42:31.242Z,82.12
2018-12-09T20:45:01.099Z,81.43
2018-12-09T20:47:30.792Z,81.52
2018-12-09T20:50:00.490Z,81.15
2018-12-09T20:52:29.875Z,81.36
2018-12-09T20:55:00.137Z,80.52
2018-12-09T20:57:31.216Z,81.17
2018-12-09T21:00:01.236Z,81.14
2018-12-09T21:02:30.671Z,81.43
2018-12-09T21:05:00.537Z,81.10
2018-12-09T21:07:30.465Z,81.06
2018-12-09T21:09:59.954Z,81.65
2018-12-09T21:12:30.262Z,81.11
2018-12-09T21:15:00.363Z,80.33
2018-12-09T21:17:30.239Z,79.60
2018-12-09T21:20:00.231Z,78.41
2018-12-09T21:22:29.947Z,78.19
2018-12-09T21:24:59.711Z,78.15
2018-12-09T21:27:29.436Z,78.33
2018-12-09T21:29:58.835Z,78.12
2018-12-09T21:32:28.916Z,77.90
2018-12-09T21:34:58.912Z,77.70
2018-12-09T21:37:29.479Z,77.97
2018-12-09T21:39:59.377Z,78.21
2018-12-09T21:42:29.910Z,78.25
2018-12-09T21:45:00.174Z,78.13
2018-12-09T21:47:29.890Z,78.60
2018-12-09T21:49:59.722Z,79.30
2018-12-09T21:52:29.581Z,79.42
2018-12-09T21:54:59.306Z,78.59
2018-12-09T21:57:28.754Z,78.73
2018-12-09T21:59:58.320Z,77.39
2018-12-09T22:02:28.021Z,76.49
2018-12-09T22:04:57.428Z,77.07
2018-12-09T22:07:27.460Z,77.08
2018-12-09T22:09:57.123Z,76.89
2018-12-09T22:12:50.923Z,77.42
2018-12-09T22:15:20.943Z,77.06
2018-12-09T22:17:50.649Z,77.42
2018-12-09T22:20:20.643Z,77.09
2018-12-09T22:22:50.387Z,76.45
2018-12-09T22:25:19.727Z,75.79
2018-12-09T22:27:49.095Z,76.06
2018-12-09T22:30:18.825Z,75.45
2018-12-09T22:32:48.565Z,75.40
2018-12-09T22:35:18.227Z,75.91
2018-12-09T22:37:47.584Z,75.23
2018-12-09T22:40:17.340Z,75.41
2018-12-09T22:42:47.092Z,75.58
2018-12-09T22:45:16.405Z,74.82
2018-12-09T22:47:46.090Z,75.22
2018-12-09T22:50:15.740Z,73.94
2018-12-09T22:52:45.338Z,74.31
2018-12-09T22:55:15.120Z,74.21
2018-12-09T22:57:44.442Z,73.82
2018-12-09T23:00:30.806Z,74.09
2018-12-09T23:03:04.043Z,74.16
2018-12-09T23:05:33.889Z,73.86
2018-12-09T23:08:03.576Z,73.98
2018-12-09T23:10:33.025Z,73.59
2018-12-09T23:13:02.712Z,74.09
2018-12-09T23:15:32.517Z,74.98
2018-12-09T23:18:02.237Z,73.26
2018-12-09T23:20:31.915Z,73.42
2018-12-09T23:23:01.616Z,73.59
2018-12-09T23:25:31.340Z,73.90
2018-12-09T23:28:01.633Z,73.42
2018-12-09T23:30:31.421Z,73.58
2018-12-09T23:33:01.065Z,73.12
2018-12-09T23:35:30.793Z,73.33
2018-12-09T23:38:00.558Z,73.92
